createdAt,value
2023-04-14T00:02:26.186Z,11.82
2023-04-14T00:04:54.497Z,11.70
2023-04-14T00:07:22.929Z,11.54
2023-04-14T00:09:51.110Z,11.86
2023-04-14T00:12:19.459Z,11.79
2023-04-14T00:14:50.485Z,11.91
2023-04-14T00:17:21.151Z,11.64
2023-04-14T00:19:51.546Z,11.76
2023-04-14T00:22:19.311Z,11.71
2023-04-14T00:24:47.666Z,11.75
2023-04-14T00:27:15.923Z,11.85
2023-04-14T00:29:47.356Z,11.87
2023-04-14T00:32:17.684Z,11.80
2023-04-14T00:34:46.553Z,11.80
2023-04-14T00:37:14.477Z,11.87
2023-04-14T00:39:43.171Z,11.87
2023-04-14T00:42:11.088Z,11.96
2023-04-14T00:44:43.836Z,11.77
2023-04-14T00:47:12.018Z,11.88
2023-04-14T00:49:39.762Z,11.97
2023-04-14T00:52:08.563Z,11.93
2023-04-14T00:54:40.811Z,11.98
2023-04-14T00:57:10.830Z,11.71
2023-04-14T00:59:42.477Z,11.83
2023-04-14T01:02:12.007Z,11.72
2023-04-14T01:04:52.886Z,11.79
2023-04-14T01:07:22.827Z,11.84
2023-04-14T01:09:52.409Z,11.78
2023-04-14T01:12:46.753Z,12.03
2023-04-14T01:15:37.986Z,11.81
2023-04-14T01:18:10.424Z,12.02
2023-04-14T01:20:43.121Z,12.06
2023-04-14T01:23:27.137Z,11.88
2023-04-14T01:26:17.431Z,12.00
2023-04-14T01:29:20.069Z,11.98
2023-04-14T01:31:54.226Z,11.89
2023-04-14T01:34:46.226Z,11.88
2023-04-14T01:37:16.914Z,12.03
2023-04-14T01:39:50.474Z,11.82
2023-04-14T01:42:25.957Z,11.86
2023-04-14T01:45:05.173Z,11.87
2023-04-14T01:47:33.197Z,11.70
2023-04-14T01:50:00.963Z,11.78
2023-04-14T01:52:32.691Z,11.82
2023-04-14T01:55:06.228Z,11.74
2023-04-14T01:57:34.600Z,11.62
2023-04-14T02:00:05.586Z,11.73
2023-04-14T02:02:46.583Z,11.73
2023-04-14T02:05:15.838Z,11.64
2023-04-14T02:07:47.289Z,11.59
2023-04-14T02:10:18.724Z,11.58
2023-04-14T02:12:53.454Z,11.72
2023-04-14T02:15:42.032Z,11.73
2023-04-14T02:18:12.297Z,11.57
2023-04-14T02:20:45.001Z,11.71
2023-04-14T02:23:28.606Z,11.72
2023-04-14T02:26:02.618Z,11.85
2023-04-14T02:28:35.005Z,11.44
2023-04-14T02:31:07.862Z,11.54
2023-04-14T02:33:37.711Z,11.60
2023-04-14T02:36:14.882Z,11.40
2023-04-14T02:38:50.754Z,11.63
2023-04-14T02:41:29.393Z,11.58
2023-04-14T02:44:22.926Z,11.70
2023-04-14T02:47:24.753Z,11.57
2023-04-14T02:49:57.617Z,11.51
2023-04-14T02:52:28.399Z,11.54
2023-04-14T02:55:02.189Z,11.57
2023-04-14T02:57:34.079Z,11.54
2023-04-14T03:00:04.461Z,11.66
2023-04-14T03:02:40.243Z,11.62
2023-04-14T03:05:10.610Z,11.61
2023-04-14T03:07:53.584Z,11.71
2023-04-14T03:10:31.482Z,11.66
2023-04-14T03:13:05.853Z,11.64
2023-04-14T03:15:36.869Z,11.49
2023-04-14T03:21:03.755Z,11.65
2023-04-14T03:23:41.637Z,11.44
2023-04-14T03:26:28.195Z,11.48
2023-04-14T03:29:25.776Z,11.52
2023-04-14T03:31:57.089Z,11.57
2023-04-14T03:34:30.583Z,11.52
2023-04-14T03:37:06.425Z,11.43
2023-04-14T03:39:54.264Z,11.41
2023-04-14T03:42:40.372Z,11.42
2023-04-14T03:45:21.776Z,11.34
2023-04-14T03:48:01.322Z,11.47
2023-04-14T03:50:41.409Z,11.37
2023-04-14T03:53:28.059Z,11.54
2023-04-14T03:56:04.044Z,11.41
2023-04-14T03:58:38.958Z,11.46
2023-04-14T04:04:02.927Z,11.58
2023-04-14T04:06:43.098Z,11.59
2023-04-14T04:14:48.582Z,11.52
2023-04-14T04:17:25.655Z,11.66
2023-04-14T04:19:59.155Z,11.57
2023-04-14T05:59:56.990Z,11.59
2023-04-14T06:02:28.538Z,11.80
2023-04-14T06:04:57.641Z,11.91
2023-04-14T06:07:26.376Z,11.81
2023-04-14T06:09:58.287Z,11.95
2023-04-14T06:12:32.945Z,11.92
2023-04-14T06:15:01.655Z,11.87
2023-04-14T06:17:34.102Z,12.08
2023-04-14T06:20:03.672Z,12.00
2023-04-14T06:22:36.013Z,12.14
2023-04-14T06:25:05.458Z,11.72
2023-04-14T06:27:39.637Z,11.87
2023-04-14T06:30:19.134Z,12.12
2023-04-14T06:32:54.555Z,12.04
2023-04-14T06:35:32.874Z,11.94
2023-04-14T06:38:02.926Z,11.86
2023-04-14T06:40:31.741Z,11.81
2023-04-14T06:43:04.538Z,11.84
2023-04-14T06:45:34.195Z,11.87
2023-04-14T06:48:05.700Z,12.08
2023-04-14T06:50:36.447Z,11.77
2023-04-14T06:53:06.692Z,12.03
2023-04-14T06:55:36.986Z,11.89
2023-04-14T06:58:11.451Z,11.92
2023-04-14T07:00:41.209Z,11.82
2023-04-14T07:03:12.090Z,11.76
2023-04-14T07:05:42.340Z,11.63
2023-04-14T07:08:11.906Z,11.61
2023-04-14T07:10:41.381Z,11.59
2023-04-14T07:13:11.017Z,11.42
2023-04-14T07:15:39.423Z,11.49
2023-04-14T07:18:07.475Z,11.72
2023-04-14T07:20:37.382Z,11.86
2023-04-14T07:23:07.318Z,11.79
2023-04-14T07:25:36.994Z,11.90
2023-04-14T07:31:24.639Z,11.73
2023-04-14T07:33:54.487Z,11.79
2023-04-14T07:43:20.316Z,12.10
2023-04-14T07:49:35.031Z,11.88
2023-04-14T08:02:26.023Z,12.38
2023-04-14T08:05:06.299Z,12.49
2023-04-14T08:07:43.508Z,12.56
2023-04-14T08:10:56.926Z,12.59
2023-04-14T08:17:07.786Z,12.80
2023-04-14T08:19:40.615Z,13.00
2023-04-14T08:22:23.008Z,12.49
2023-04-14T08:25:03.769Z,12.73
2023-04-14T08:27:47.467Z,12.67
2023-04-14T08:30:30.779Z,12.60
2023-04-14T08:33:04.682Z,12.60
2023-04-14T08:36:00.915Z,12.49
2023-04-14T08:42:48.281Z,12.64
2023-04-14T08:45:24.654Z,12.37
2023-04-14T08:48:43.074Z,12.24
2023-04-14T08:55:52.040Z,12.31
2023-04-14T08:58:20.281Z,12.24
2023-04-14T09:00:49.765Z,12.28
2023-04-14T09:03:20.090Z,12.40
2023-04-14T09:05:48.807Z,12.44
2023-04-14T09:08:17.453Z,12.19
2023-04-14T09:10:50.892Z,12.40
2023-04-14T09:13:21.640Z,12.28
2023-04-14T09:19:30.031Z,12.34
2023-04-14T09:21:59.778Z,12.33
2023-04-14T09:24:32.361Z,12.26
2023-04-14T09:27:05.849Z,12.28
2023-04-14T09:29:34.916Z,12.20
2023-04-14T09:32:15.682Z,12.17
2023-04-14T09:34:50.747Z,12.39
2023-04-14T09:37:47.444Z,12.45
2023-04-14T09:40:31.095Z,12.33
2023-04-14T09:42:59.149Z,12.42
2023-04-14T09:45:45.224Z,12.63
2023-04-14T09:48:14.405Z,12.62
2023-04-14T09:51:16.955Z,12.77
2023-04-14T09:53:48.575Z,12.88
2023-04-14T09:56:17.772Z,13.09
2023-04-14T09:58:47.859Z,12.88
2023-04-14T10:01:20.066Z,12.81
2023-04-14T10:03:56.713Z,12.60
2023-04-14T10:06:29.146Z,12.86
2023-04-14T10:08:59.542Z,12.87
2023-04-14T10:11:33.061Z,12.74
2023-04-14T10:18:54.076Z,12.91
2023-04-14T10:21:28.310Z,13.14
2023-04-14T10:23:58.021Z,13.10
2023-04-14T10:26:27.342Z,12.47
2023-04-14T10:29:03.085Z,12.22
2023-04-14T10:31:38.166Z,12.04
2023-04-14T10:34:14.421Z,12.10
2023-04-14T10:36:44.747Z,12.10
2023-04-14T10:39:14.753Z,12.22
2023-04-14T10:41:44.360Z,12.20
2023-04-14T10:44:38.423Z,12.02
2023-04-14T10:47:08.833Z,12.47
2023-04-14T10:49:38.833Z,12.38
2023-04-14T10:52:29.419Z,12.63
2023-04-14T10:55:02.159Z,12.96
2023-04-14T10:57:30.789Z,12.91
2023-04-14T11:00:04.254Z,13.08
2023-04-14T11:02:58.624Z,12.87
2023-04-14T11:05:28.144Z,12.87
2023-04-14T11:08:02.400Z,12.41
2023-04-14T11:10:41.089Z,12.18
2023-04-14T11:13:13.256Z,12.13
2023-04-14T11:15:43.484Z,11.98
2023-04-14T11:18:22.039Z,11.87
2023-04-14T11:20:53.287Z,11.98
2023-04-14T11:23:30.555Z,11.95
2023-04-14T11:25:59.631Z,12.01
2023-04-14T11:28:34.128Z,12.12
2023-04-14T11:31:05.562Z,12.42
2023-04-14T11:33:36.155Z,12.66
2023-04-14T11:36:07.823Z,12.72
2023-04-14T11:38:40.904Z,12.34
2023-04-14T11:41:10.187Z,12.77
2023-04-14T11:43:46.607Z,12.85
2023-04-14T11:46:23.390Z,12.80
2023-04-14T11:48:58.025Z,12.86
2023-04-14T11:51:40.700Z,13.35
2023-04-14T11:54:12.096Z,13.09
2023-04-14T11:56:40.847Z,12.92
2023-04-14T11:59:09.338Z,12.71
2023-04-14T12:01:37.347Z,12.43
2023-04-14T12:04:07.956Z,12.31
2023-04-14T12:06:40.310Z,12.10
2023-04-14T12:09:12.710Z,11.90
2023-04-14T12:11:54.785Z,11.66
2023-04-14T12:14:24.369Z,11.66
2023-04-14T12:16:52.965Z,11.86
2023-04-14T12:19:21.859Z,11.81
2023-04-14T12:21:54.975Z,12.09
2023-04-14T12:24:23.814Z,11.64
2023-04-14T12:26:52.688Z,11.65
2023-04-14T12:29:21.510Z,11.55
2023-04-14T12:31:50.709Z,11.44
2023-04-14T12:34:27.182Z,11.22
2023-04-14T12:36:55.965Z,11.61
2023-04-14T12:39:31.787Z,11.64
2023-04-14T12:41:59.662Z,11.40
2023-04-14T12:44:28.644Z,11.41
2023-04-14T12:46:57.659Z,11.55
2023-04-14T12:49:43.946Z,11.45
2023-04-14T12:52:40.172Z,11.35
2023-04-14T12:55:20.149Z,11.58
2023-04-14T12:57:54.235Z,11.29
2023-04-14T13:00:25.940Z,11.53
2023-04-14T13:02:55.911Z,11.43
2023-04-14T13:05:24.116Z,11.83
2023-04-14T13:07:55.414Z,11.83
2023-04-14T13:10:24.637Z,11.82
2023-04-14T13:12:54.411Z,11.89
2023-04-14T13:16:12.986Z,11.82
2023-04-14T13:18:15.031Z,11.91
2023-04-14T13:20:44.571Z,11.77
2023-04-14T13:23:12.743Z,11.81
2023-04-14T13:25:40.838Z,11.18
2023-04-14T13:28:09.672Z,10.89
2023-04-14T13:30:41.843Z,10.57
2023-04-14T13:33:10.326Z,10.37
2023-04-14T13:35:39.875Z,10.51
2023-04-14T13:38:09.372Z,10.42
2023-04-14T13:40:47.480Z,10.54
2023-04-14T13:43:18.701Z,10.49
2023-04-14T13:45:49.741Z,10.25
2023-04-14T13:48:19.077Z,10.45
2023-04-14T13:50:52.044Z,10.25
2023-04-14T13:53:21.692Z,10.29
2023-04-14T13:55:51.910Z,10.20
2023-04-14T13:58:21.912Z,10.07
2023-04-14T14:00:51.811Z,10.24
2023-04-14T14:03:45.614Z,10.05
2023-04-14T14:06:15.791Z,10.24
2023-04-14T14:08:45.633Z,10.14
2023-04-14T14:11:17.578Z,10.27
2023-04-14T14:13:47.645Z,10.32
2023-04-14T14:16:33.185Z,10.29
2023-04-14T14:19:11.524Z,10.43
2023-04-14T14:21:42.060Z,10.56
2023-04-14T14:24:11.752Z,10.48
2023-04-14T14:26:40.651Z,10.45
2023-04-14T14:29:13.714Z,10.41
2023-04-14T14:31:42.115Z,10.53
2023-04-14T14:34:11.340Z,10.40
2023-04-14T14:36:39.755Z,10.49
2023-04-14T14:39:10.574Z,10.49
2023-04-14T14:41:39.659Z,10.63
2023-04-14T14:44:08.056Z,10.46
2023-04-14T14:46:36.603Z,10.66
2023-04-14T14:49:07.090Z,10.69
2023-04-14T14:51:36.628Z,10.64
2023-04-14T14:54:10.311Z,10.71
2023-04-14T14:56:42.072Z,10.92
2023-04-14T14:59:09.952Z,10.76
2023-04-14T15:01:38.407Z,11.05
2023-04-14T15:04:06.922Z,10.76
2023-04-14T15:06:37.498Z,11.05
2023-04-14T15:09:06.764Z,10.65
2023-04-14T15:11:37.662Z,10.75
2023-04-14T15:14:06.917Z,10.64
2023-04-14T15:16:35.131Z,10.79
2023-04-14T15:19:04.973Z,10.63
2023-04-14T15:21:34.969Z,10.60
2023-04-14T15:24:04.165Z,10.85
2023-04-14T15:26:33.265Z,10.83
2023-04-14T15:29:02.739Z,10.89
2023-04-14T15:31:40.041Z,10.98
2023-04-14T15:34:14.518Z,10.89
2023-04-14T15:36:43.490Z,11.04
2023-04-14T15:39:13.451Z,10.65
2023-04-14T15:41:44.885Z,10.60
2023-04-14T15:44:12.647Z,10.49
2023-04-14T15:46:40.692Z,10.56
2023-04-14T15:49:12.279Z,10.40
2023-04-14T15:51:41.196Z,10.48
2023-04-14T15:54:08.856Z,10.54
2023-04-14T15:56:38.513Z,10.42
2023-04-14T16:01:49.402Z,10.57
2023-04-14T16:04:18.146Z,10.62
2023-04-14T16:06:46.761Z,10.49
2023-04-14T16:09:15.775Z,10.54
2023-04-14T16:11:43.760Z,10.55
2023-04-14T16:14:15.352Z,10.74
2023-04-14T16:16:47.259Z,10.63
2023-04-14T16:19:16.244Z,10.42
2023-04-14T16:21:44.351Z,10.28
2023-04-14T16:24:12.258Z,10.42
2023-04-14T16:26:41.555Z,10.36
2023-04-14T16:29:10.973Z,10.29
2023-04-14T16:31:38.785Z,10.11
2023-04-14T16:34:07.235Z,10.20
2023-04-14T16:36:35.002Z,10.33
2023-04-14T16:39:03.621Z,10.24
2023-04-14T16:41:32.180Z,10.27
2023-04-14T16:44:00.824Z,10.26
2023-04-14T16:46:28.999Z,10.36
2023-04-14T16:48:56.761Z,10.52
2023-04-14T16:51:26.991Z,10.58
2023-04-14T16:53:55.851Z,10.66
2023-04-14T16:56:24.188Z,10.54
2023-04-14T16:58:52.219Z,10.32
2023-04-14T17:01:21.088Z,10.37
2023-04-14T17:03:49.537Z,10.23
2023-04-14T17:06:17.316Z,10.09
2023-04-14T17:08:47.389Z,10.17
2023-04-14T17:11:16.197Z,9.85
2023-04-14T17:13:45.190Z,10.05
2023-04-14T17:16:18.921Z,10.07
2023-04-14T17:18:48.341Z,10.01
2023-04-14T17:21:16.033Z,10.09
2023-04-14T17:23:57.476Z,10.27
2023-04-14T17:26:27.872Z,9.86
2023-04-14T17:28:56.972Z,9.88
2023-04-14T17:31:26.928Z,9.76
2023-04-14T17:33:58.222Z,9.91
2023-04-14T17:36:30.212Z,9.64
2023-04-14T17:38:58.577Z,9.74
2023-04-14T17:41:28.033Z,9.66
2023-04-14T17:44:43.625Z,9.99
2023-04-14T17:47:15.656Z,9.77
2023-04-14T17:49:48.851Z,9.71
2023-04-14T17:52:27.223Z,9.63
2023-04-14T17:54:56.332Z,9.80
2023-04-14T17:57:39.933Z,9.81
2023-04-14T18:00:20.375Z,9.71
2023-04-14T18:02:51.772Z,9.59
2023-04-14T18:05:31.218Z,9.76
2023-04-14T18:08:12.731Z,9.51
2023-04-14T18:13:47.458Z,9.66
2023-04-14T18:16:24.751Z,9.38
2023-04-14T18:19:01.108Z,9.41
2023-04-14T18:21:47.057Z,9.32
2023-04-14T18:26:54.862Z,9.43
2023-04-14T18:29:23.854Z,9.35
2023-04-14T18:32:00.696Z,9.44
2023-04-14T18:35:05.258Z,9.36
2023-04-14T18:37:47.546Z,9.22
2023-04-14T18:40:22.175Z,9.42
2023-04-14T18:43:18.136Z,9.44
2023-04-14T18:46:08.669Z,9.20
2023-04-14T18:48:52.344Z,9.14
2023-04-14T18:51:25.459Z,9.27
2023-04-14T18:53:57.294Z,9.18
2023-04-14T18:59:25.529Z,8.97
2023-04-14T19:01:56.764Z,9.09
2023-04-14T19:04:24.884Z,9.20
2023-04-14T19:06:54.294Z,9.29
2023-04-14T19:09:25.016Z,9.22
2023-04-14T19:11:59.918Z,9.27
2023-04-14T19:14:31.419Z,9.17
2023-04-14T19:17:06.885Z,9.16
2023-04-14T19:19:40.922Z,9.03
2023-04-14T19:22:13.435Z,9.06
2023-04-14T19:24:41.098Z,9.07
2023-04-14T19:27:21.214Z,9.07
2023-04-14T19:32:56.237Z,9.17
2023-04-14T19:35:24.231Z,8.93
2023-04-14T19:37:56.139Z,8.95
2023-04-14T19:40:25.587Z,8.93
2023-04-14T19:42:55.761Z,8.84
2023-04-14T19:45:27.809Z,8.89
2023-04-14T19:48:19.864Z,9.04
2023-04-14T19:53:48.914Z,8.97
2023-04-14T19:56:17.277Z,8.78
2023-04-14T19:58:48.256Z,8.74
2023-04-14T20:01:18.923Z,8.74
2023-04-14T20:04:07.252Z,8.86
2023-04-14T20:06:39.303Z,8.75
2023-04-14T20:09:09.429Z,9.04
2023-04-14T20:11:43.463Z,8.84
2023-04-14T20:14:11.641Z,8.67
2023-04-14T20:17:04.668Z,8.87
2023-04-14T20:19:36.439Z,8.91
2023-04-14T20:22:08.039Z,8.83
2023-04-14T20:24:40.038Z,8.67
2023-04-14T20:27:09.436Z,8.67
2023-04-14T20:29:37.801Z,8.65
2023-04-14T20:34:53.401Z,8.85
2023-04-14T20:37:22.126Z,8.93
2023-04-14T20:39:57.969Z,8.66
2023-04-14T20:42:27.229Z,8.67
2023-04-14T20:45:03.439Z,8.73
2023-04-14T20:47:33.719Z,9.06
2023-04-14T20:50:07.676Z,8.98
2023-04-14T20:52:36.936Z,8.54
2023-04-14T20:55:05.198Z,8.89
2023-04-14T20:57:54.457Z,8.71
2023-04-14T21:00:25.979Z,8.68
2023-04-14T21:03:01.065Z,8.38
2023-04-14T21:05:29.561Z,8.35
2023-04-14T21:07:57.612Z,8.46
2023-04-14T21:10:28.076Z,8.68
2023-04-14T21:15:39.809Z,8.59
2023-04-14T21:15:56.850Z,8.51
2023-04-14T21:18:28.657Z,8.50
2023-04-14T21:20:59.595Z,8.86
2023-04-14T21:23:28.945Z,8.59
2023-04-14T21:26:00.528Z,8.66
2023-04-14T21:28:29.394Z,8.84
2023-04-14T21:31:02.002Z,8.58
2023-04-14T21:33:38.792Z,8.63
2023-04-14T21:36:44.703Z,8.79
2023-04-14T21:39:36.754Z,8.67
2023-04-14T21:42:05.066Z,8.62
2023-04-14T21:44:35.398Z,8.55
2023-04-14T21:47:10.944Z,8.77
2023-04-14T21:49:58.787Z,8.49
2023-04-14T21:52:37.534Z,8.63
2023-04-14T21:55:08.046Z,8.74
2023-04-14T21:57:49.282Z,8.36
2023-04-14T22:00:20.956Z,8.58
2023-04-14T22:03:03.397Z,8.76
2023-04-14T22:05:52.476Z,8.53
2023-04-14T22:08:29.598Z,8.38
2023-04-14T22:10:58.529Z,8.21
2023-04-14T22:13:29.085Z,8.54
2023-04-14T22:15:59.310Z,8.38
2023-04-14T22:18:32.958Z,8.46
2023-04-14T22:21:12.519Z,8.45
2023-04-14T22:24:17.296Z,8.41
2023-04-14T22:26:48.608Z,8.04
2023-04-14T22:29:21.239Z,8.17
2023-04-14T22:31:58.998Z,8.01
2023-04-14T22:34:28.066Z,8.20
2023-04-14T22:36:59.405Z,8.28
2023-04-14T22:39:30.381Z,7.98
2023-04-14T22:41:59.305Z,8.13
2023-04-14T22:44:29.613Z,7.98
2023-04-14T22:50:01.749Z,8.32
2023-04-14T22:55:19.816Z,8.07
2023-04-14T22:58:20.535Z,8.03
2023-04-14T23:00:49.975Z,8.22
2023-04-14T23:06:03.482Z,8.34
2023-04-14T23:08:36.613Z,8.12
2023-04-14T23:11:06.265Z,8.10
2023-04-14T23:13:34.404Z,8.08
2023-04-14T23:16:08.211Z,8.11
2023-04-14T23:18:43.382Z,8.16
2023-04-14T23:21:13.530Z,8.26
2023-04-14T23:23:44.407Z,8.26
2023-04-14T23:26:14.812Z,8.13
2023-04-14T23:28:55.327Z,7.98
2023-04-14T23:31:30.299Z,8.14
2023-04-14T23:34:09.435Z,8.01
2023-04-14T23:36:47.117Z,8.17
2023-04-14T23:39:42.845Z,8.39
2023-04-14T23:42:16.229Z,8.00
2023-04-14T23:44:58.487Z,7.94
2023-04-14T23:47:27.745Z,7.99
2023-04-14T23:49:57.724Z,7.98
2023-04-14T23:52:37.218Z,7.94
2023-04-14T23:55:07.685Z,8.04
2023-04-14T23:57:37.930Z,8.03
